Time;durP1;ratioP1;P1;durP2;ratioP2;P2;SDS_P1;SDS_P2;PMS_P1;PMS_P2;Temp;Humidity;BMP_temperature;BMP_pressure;BME280_temperature;BME280_humidity;BME280_pressure;Samples;Min_cycle;Max_cycle;Signal;HPM_P1;HPM_P2
2022/09/04 00:00:23;;;;;;;;;;;;;;;9.51;100.00;100980.75;3059042;19;956;-46
2022/09/04 00:01:31;;;;;;;;;;;;;;;9.49;100.00;100979.94;3058514;19;949;-48
2022/09/04 00:02:42;;;;;;;;;;;;;;;9.48;100.00;100977.34;3058912;19;974;-48
2022/09/04 00:03:46;;;;;;;;;;;;;;;9.44;100.00;100981.97;3057574;19;1852;-47
2022/09/04 00:04:51;;;;;;;;;;;;;;;9.43;100.00;100979.38;3057912;19;1019;-47
2022/09/04 00:05:54;;;;;;;;;;;;;;;9.42;100.00;100981.16;3057935;19;976;-47
2022/09/04 00:07:02;;;;;;;;;;;;;;;9.41;100.00;100979.47;3059103;19;963;-48
2022/09/04 00:08:16;;;;;;;;;;;;;;;9.40;100.00;100980.41;3058888;19;944;-48
2022/09/04 00:09:22;;;;;;;;;;;;;;;9.38;100.00;100977.81;3058741;19;945;-45
2022/09/04 00:10:35;;;;;;;;;;;;;;;9.38;100.00;100980.47;3058059;19;800;-47
2022/09/04 00:11:45;;;;;;;;;;;;;;;9.35;100.00;100974.44;3057670;19;1182;-47
2022/09/04 00:12:56;;;;;;;;;;;;;;;9.32;100.00;100975.44;3058121;19;1028;-46
2022/09/04 00:14:01;;;;;;;;;;;;;;;9.35;100.00;100977.09;3057720;19;1008;-48
2022/09/04 00:15:21;;;;;;;;;;;;;;;9.34;100.00;100986.03;3057815;19;936;-49
2022/09/04 00:16:23;;;;;;;;;;;;;;;9.31;100.00;100986.16;3057968;19;960;-47
2022/09/04 00:17:30;;;;;;;;;;;;;;;9.27;100.00;100982.81;3057977;19;952;-48
2022/09/04 00:18:32;;;;;;;;;;;;;;;9.30;100.00;100981.75;3057750;19;1016;-47
2022/09/04 00:19:39;;;;;;;;;;;;;;;9.28;100.00;100986.34;3058439;19;922;-49
2022/09/04 00:20:52;;;;;;;;;;;;;;;9.27;100.00;100987.25;3058141;19;1155;-46
2022/09/04 00:21:56;;;;;;;;;;;;;;;9.26;100.00;100980.22;3057944;19;921;-47
2022/09/04 00:22:59;;;;;;;;;;;;;;;9.27;100.00;100984.59;3058169;19;928;-48
2022/09/04 00:24:07;;;;;;;;;;;;;;;9.27;100.00;100987.25;3057879;19;1842;-49
2022/09/04 00:25:15;;;;;;;;;;;;;;;9.26;100.00;100985.53;3057771;19;1004;-46
2022/09/04 00:26:38;;;;;;;;;;;;;;;9.26;100.00;100983.72;3057216;19;1339;-45
2022/09/04 00:27:44;;;;;;;;;;;;;;;9.27;100.00;100987.25;3058713;19;987;-47
2022/09/04 00:28:50;;;;;;;;;;;;;;;9.26;100.00;100990.88;3057680;19;696;-47
2022/09/04 00:29:57;;;;;;;;;;;;;;;9.26;100.00;100990.88;3057606;19;972;-48
2022/09/04 00:31:14;;;;;;;;;;;;;;;9.25;100.00;100984.66;3057452;19;1812;-48
2022/09/04 00:32:24;;;;;;;;;;;;;;;9.24;100.00;100992.72;3057457;19;1057;-47
2022/09/04 00:33:32;;;;;;;;;;;;;;;9.23;100.00;100991.00;3058878;19;1449;-49
2022/09/04 00:34:37;;;;;;;;;;;;;;;9.23;100.00;100991.00;3057281;19;1165;-45
2022/09/04 00:35:43;;;;;;;;;;;;;;;9.21;100.00;100988.41;3057923;19;846;-47
2022/09/04 00:36:46;;;;;;;;;;;;;;;9.19;100.00;100978.75;3058454;19;948;-47
2022/09/04 00:37:57;;;;;;;;;;;;;;;9.18;100.00;100982.34;3057542;19;1378;-46
2022/09/04 00:39:02;;;;;;;;;;;;;;;9.16;100.00;100990.44;3057215;19;878;-45
2022/09/04 00:40:10;;;;;;;;;;;;;;;9.15;100.00;100982.53;3056463;19;878;-45
2022/09/04 00:41:12;;;;;;;;;;;;;;;9.13;100.00;100981.72;3057555;19;1044;-48
2022/09/04 00:42:19;;;;;;;;;;;;;;;9.12;100.00;100985.31;3058530;19;703;-47
2022/09/04 00:43:40;;;;;;;;;;;;;;;9.09;100.00;100983.66;3058477;19;968;-46
2022/09/04 00:44:54;;;;;;;;;;;;;;;9.09;100.00;100989.00;3057647;19;1846;-48
2022/09/04 00:45:56;;;;;;;;;;;;;;;9.09;100.00;100990.78;3058470;19;948;-46
2022/09/04 00:47:00;;;;;;;;;;;;;;;9.07;100.00;100990.00;3058287;19;957;-47
2022/09/04 00:48:11;;;;;;;;;;;;;;;9.05;100.00;100990.09;3058520;19;869;-48
2022/09/04 00:49:29;;;;;;;;;;;;;;;9.03;100.00;100994.63;3057296;19;878;-45
2022/09/04 00:50:42;;;;;;;;;;;;;;;9.03;100.00;100989.31;3057727;19;912;-48
2022/09/04 00:52:00;;;;;;;;;;;;;;;8.99;100.00;100993.91;3057309;19;988;-46
2022/09/04 00:53:08;;;;;;;;;;;;;;;8.97;100.00;100995.75;3057368;19;904;-46
2022/09/04 00:54:29;;;;;;;;;;;;;;;8.96;100.00;100993.16;3057958;19;863;-48
2022/09/04 00:55:52;;;;;;;;;;;;;;;8.95;100.00;100997.63;3057448;19;1024;-47
2022/09/04 00:56:54;;;;;;;;;;;;;;;8.92;100.00;100997.78;3058514;19;814;-46
2022/09/04 00:58:34;;;;;;;;;;;;;;;8.90;100.00;100999.66;3057326;19;917;-45
2022/09/04 00:59:55;;;;;;;;;;;;;;;8.89;100.00;100997.94;3055974;19;1336;-45
2022/09/04 01:00:59;;;;;;;;;;;;;;;8.87;100.00;100989.13;3056823;19;933;-48
2022/09/04 01:02:07;;;;;;;;;;;;;;;8.85;100.00;100996.34;3056509;19;1067;-47
2022/09/04 01:03:18;;;;;;;;;;;;;;;8.82;100.00;100996.47;3057540;19;820;-48
2022/09/04 01:04:27;;;;;;;;;;;;;;;8.81;100.00;101000.09;3057405;19;917;-46
2022/09/04 01:05:31;;;;;;;;;;;;;;;8.81;100.00;100994.75;3058096;19;875;-46
2022/09/04 01:06:34;;;;;;;;;;;;;;;8.82;100.00;101001.78;3058447;19;877;-48
2022/09/04 01:07:38;;;;;;;;;;;;;;;8.82;100.00;100998.25;3056976;19;882;-47
2022/09/04 01:09:01;;;;;;;;;;;;;;;8.83;100.00;100997.31;3057305;19;944;-46
2022/09/04 01:10:20;;;;;;;;;;;;;;;8.85;100.00;100996.34;3056011;19;1455;-45
2022/09/04 01:11:28;;;;;;;;;;;;;;;8.82;100.00;101001.78;3058266;19;869;-48
2022/09/04 01:12:44;;;;;;;;;;;;;;;8.82;100.00;100995.59;3057975;19;913;-46
2022/09/04 01:13:49;;;;;;;;;;;;;;;8.81;100.00;101000.09;3056732;19;949;-46
2022/09/04 01:14:54;;;;;;;;;;;;;;;8.80;100.00;101003.69;3056999;19;969;-48
2022/09/04 01:16:00;;;;;;;;;;;;;;;8.80;100.00;100997.50;3057101;19;906;-47
2022/09/04 01:17:09;;;;;;;;;;;;;;;8.78;100.00;101002.88;3057046;19;964;-47
2022/09/04 01:18:20;;;;;;;;;;;;;;;8.76;100.00;100999.41;3057000;19;1284;-48
2022/09/04 01:19:43;;;;;;;;;;;;;;;8.74;100.00;101001.28;3057055;19;995;-46
2022/09/04 01:20:47;;;;;;;;;;;;;;;8.73;100.00;101002.22;3057154;19;946;-49
2022/09/04 01:21:58;;;;;;;;;;;;;;;8.72;100.00;101000.50;3055941;19;849;-46
2022/09/04 01:23:08;;;;;;;;;;;;;;;8.71;100.00;100998.75;3057637;19;1027;-46
2022/09/04 01:24:17;;;;;;;;;;;;;;;8.70;100.00;100997.03;3057212;19;928;-47
2022/09/04 01:25:22;;;;;;;;;;;;;;;8.67;100.00;100997.19;3056259;19;1849;-46
2022/09/04 01:26:31;;;;;;;;;;;;;;;8.64;100.00;100997.31;3057864;19;1389;-46
2022/09/04 01:27:53;;;;;;;;;;;;;;;8.64;100.00;100997.31;3057121;19;1132;-49
2022/09/04 01:28:58;;;;;;;;;;;;;;;8.64;100.00;101003.50;3057390;19;909;-47
2022/09/04 01:30:02;;;;;;;;;;;;;;;8.64;100.00;100997.31;3057994;19;857;-47
2022/09/04 01:31:10;;;;;;;;;;;;;;;8.62;100.00;100996.53;3057822;19;1022;-49
2022/09/04 01:32:33;;;;;;;;;;;;;;;8.60;100.00;101001.03;3057916;19;869;-47
2022/09/04 01:33:38;;;;;;;;;;;;;;;8.59;100.00;101010.81;3057851;19;945;-47
2022/09/04 01:34:51;;;;;;;;;;;;;;;8.57;100.00;101002.03;3057684;19;945;-49
2022/09/04 01:36:12;;;;;;;;;;;;;;;8.57;100.00;101003.88;3057798;19;905;-48
2022/09/04 01:37:21;;;;;;;;;;;;;;;8.55;100.00;101005.72;3057748;19;872;-45
2022/09/04 01:38:34;;;;;;;;;;;;;;;8.52;100.00;101003.19;3057702;19;1052;-48
2022/09/04 01:39:38;;;;;;;;;;;;;;;8.50;100.00;101005.06;3056814;19;944;-48
2022/09/04 01:40:46;;;;;;;;;;;;;;;8.48;100.00;101002.47;3056997;19;889;-45
2022/09/04 01:41:54;;;;;;;;;;;;;;;8.49;100.00;101003.31;3057663;19;1077;-48
2022/09/04 01:42:57;;;;;;;;;;;;;;;8.47;100.00;101005.19;3056473;19;904;-46
2022/09/04 01:44:01;;;;;;;;;;;;;;;8.47;100.00;101000.72;3056789;19;933;-48
2022/09/04 01:45:04;;;;;;;;;;;;;;;8.47;100.00;101002.53;3056389;19;1862;-49
2022/09/04 01:46:38;;;;;;;;;;;;;;;8.48;100.00;100998.94;3057597;19;1298;-47
2022/09/04 01:47:46;;;;;;;;;;;;;;;8.48;100.00;100998.94;3055689;19;1466;-47
2022/09/04 01:48:55;;;;;;;;;;;;;;;8.50;100.00;101005.06;3056228;19;1158;-46
2022/09/04 01:50:00;;;;;;;;;;;;;;;8.50;100.00;100994.41;3056529;19;1024;-49
2022/09/04 01:51:07;;;;;;;;;;;;;;;8.48;100.00;100996.28;3057281;19;964;-47
2022/09/04 01:52:21;;;;;;;;;;;;;;;8.47;100.00;101000.72;3057469;19;991;-47
2022/09/04 01:53:26;;;;;;;;;;;;;;;8.48;100.00;100996.28;3057608;19;948;-49
2022/09/04 01:54:42;;;;;;;;;;;;;;;8.48;100.00;100991.81;3057550;19;1063;-50
2022/09/04 01:55:52;;;;;;;;;;;;;;;8.51;100.00;100996.16;3056669;19;1044;-47
2022/09/04 01:57:10;;;;;;;;;;;;;;;8.50;100.00;100992.63;3057269;19;936;-45
2022/09/04 01:58:20;;;;;;;;;;;;;;;8.50;100.00;100991.75;3057597;19;940;-45
2022/09/04 01:59:25;;;;;;;;;;;;;;;8.50;100.00;100994.41;3057628;19;873;-44
2022/09/04 02:00:30;;;;;;;;;;;;;;;8.49;100.00;100996.22;3056595;19;908;-47
2022/09/04 02:01:37;;;;;;;;;;;;;;;8.49;100.00;100992.69;3056696;19;1079;-46
2022/09/04 02:02:42;;;;;;;;;;;;;;;8.46;100.00;100991.03;3057295;19;1126;-46
2022/09/04 02:03:55;;;;;;;;;;;;;;;8.45;100.00;100994.59;3057285;19;1055;-48
2022/09/04 02:05:01;;;;;;;;;;;;;;;8.45;100.00;100991.13;3057361;19;1068;-45
2022/09/04 02:06:30;;;;;;;;;;;;;;;8.44;100.00;100992.91;3055562;19;1897;-47
2022/09/04 02:07:45;;;;;;;;;;;;;;;8.42;100.00;100985.94;3057164;19;964;-45
2022/09/04 02:09:09;;;;;;;;;;;;;;;8.41;100.00;100986.84;3057349;19;1110;-46
2022/09/04 02:10:15;;;;;;;;;;;;;;;8.39;100.00;100988.72;3056249;19;981;-46
2022/09/04 02:11:20;;;;;;;;;;;;;;;8.38;100.00;100986.97;3056396;19;900;-50
2022/09/04 02:12:36;;;;;;;;;;;;;;;8.37;100.00;100983.47;3056036;19;953;-47
2022/09/04 02:13:43;;;;;;;;;;;;;;;8.35;100.00;100984.44;3056481;19;956;-48
2022/09/04 02:14:46;;;;;;;;;;;;;;;8.34;100.00;100988.03;3056531;19;1196;-46
2022/09/04 02:15:57;;;;;;;;;;;;;;;8.32;100.00;100987.28;3057105;19;976;-48
2022/09/04 02:17:34;;;;;;;;;;;;;;;8.30;100.00;100990.81;3056159;19;798;-47
2022/09/04 02:18:35;;;;;;;;;;;;;;;8.28;100.00;100991.81;3055273;19;1591;-47
2022/09/04 02:19:52;;;;;;;;;;;;;;;8.26;100.00;100989.22;3056828;19;1118;-48
2022/09/04 02:21:12;;;;;;;;;;;;;;;8.23;100.00;100986.69;3057103;19;957;-49
2022/09/04 02:22:26;;;;;;;;;;;;;;;8.25;100.00;100984.84;3057319;19;965;-47
2022/09/04 02:23:43;;;;;;;;;;;;;;;8.26;100.00;100985.69;3056921;19;952;-46
2022/09/04 02:24:47;;;;;;;;;;;;;;;8.23;100.00;100981.38;3056138;19;916;-47
2022/09/04 02:25:57;;;;;;;;;;;;;;;8.23;100.00;100983.16;3055964;19;1842;-46
2022/09/04 02:27:08;;;;;;;;;;;;;;;8.21;100.00;100980.56;3056122;19;984;-46
2022/09/04 02:28:22;;;;;;;;;;;;;;;8.24;100.00;100985.75;3056387;19;929;-46
2022/09/04 02:29:29;;;;;;;;;;;;;;;8.25;100.00;100982.19;3056287;19;945;-49
2022/09/04 02:30:38;;;;;;;;;;;;;;;8.27;100.00;100975.00;3056394;19;956;-46
2022/09/04 02:31:46;;;;;;;;;;;;;;;8.28;100.00;100984.72;3056112;19;961;-45
2022/09/04 02:32:56;;;;;;;;;;;;;;;8.28;100.00;100976.72;3056143;19;1016;-47
2022/09/04 02:34:11;;;;;;;;;;;;;;;8.28;100.00;100974.06;3056057;19;1035;-44
2022/09/04 02:35:16;;;;;;;;;;;;;;;8.30;100.00;100982.00;3057031;19;956;-47
2022/09/04 02:36:23;;;;;;;;;;;;;;;8.27;100.00;100985.63;3057113;19;1219;-48
2022/09/04 02:37:33;;;;;;;;;;;;;;;8.27;100.00;100982.13;3056919;19;1008;-48
2022/09/04 02:38:37;;;;;;;;;;;;;;;8.25;100.00;100984.84;3056319;19;1750;-47
2022/09/04 02:39:59;;;;;;;;;;;;;;;8.22;100.00;100979.66;3056079;19;953;-47
2022/09/04 02:41:14;;;;;;;;;;;;;;;8.21;100.00;100977.91;3056506;19;957;-48
2022/09/04 02:42:29;;;;;;;;;;;;;;;8.19;100.00;100979.81;3056952;19;873;-48
2022/09/04 02:43:38;;;;;;;;;;;;;;;8.16;100.00;100974.63;3055921;19;872;-47
2022/09/04 02:44:40;;;;;;;;;;;;;;;8.18;100.00;100980.72;3056179;19;1012;-45
2022/09/04 02:45:53;;;;;;;;;;;;;;;8.18;100.00;100983.38;3056715;19;1144;-46
2022/09/04 02:47:14;;;;;;;;;;;;;;;8.15;100.00;100983.50;3056169;19;834;-48
2022/09/04 02:48:33;;;;;;;;;;;;;;;8.15;100.00;100988.84;3056070;19;1006;-48
2022/09/04 02:49:37;;;;;;;;;;;;;;;8.14;100.00;100987.09;3056813;19;1051;-45
2022/09/04 02:50:49;;;;;;;;;;;;;;;8.13;100.00;100980.06;3056077;19;1166;-47
2022/09/04 02:52:23;;;;;;;;;;;;;;;8.13;100.00;100980.06;3055858;19;1000;-47
2022/09/04 02:53:27;;;;;;;;;;;;;;;8.13;100.00;100980.06;3054776;19;1624;-47
2022/09/04 02:54:47;;;;;;;;;;;;;;;8.11;100.00;100981.91;3056334;19;1103;-49
2022/09/04 02:56:08;;;;;;;;;;;;;;;8.11;100.00;100975.72;3055954;19;1128;-45
2022/09/04 02:57:18;;;;;;;;;;;;;;;8.10;100.00;100990.81;3056873;19;972;-47
2022/09/04 02:58:27;;;;;;;;;;;;;;;8.09;100.00;100978.44;3056438;19;960;-49
2022/09/04 02:59:54;;;;;;;;;;;;;;;8.08;100.00;100982.06;3055957;19;1027;-46
2022/09/04 03:01:01;;;;;;;;;;;;;;;8.09;100.00;100982.94;3054335;19;1164;-46
2022/09/04 03:02:04;;;;;;;;;;;;;;;8.10;100.00;100984.63;3056086;19;952;-48
2022/09/04 03:03:08;;;;;;;;;;;;;;;8.10;100.00;100984.63;3057686;19;954;-48
2022/09/04 03:04:16;;;;;;;;;;;;;;;8.09;100.00;100978.44;3059846;19;912;-47
2022/09/04 03:05:22;;;;;;;;;;;;;;;8.09;100.00;100977.63;3059941;19;937;-48
2022/09/04 03:06:40;;;;;;;;;;;;;;;8.08;100.00;100978.53;3058392;19;1848;-45
2022/09/04 03:07:47;;;;;;;;;;;;;;;8.07;100.00;100975.03;3058873;19;957;-45
2022/09/04 03:08:52;;;;;;;;;;;;;;;8.08;100.00;100976.75;3058757;19;917;-46
2022/09/04 03:10:01;;;;;;;;;;;;;;;8.07;100.00;100976.81;3058694;19;845;-47
2022/09/04 03:11:22;;;;;;;;;;;;;;;8.06;100.00;100970.63;3058954;19;944;-45
2022/09/04 03:12:38;;;;;;;;;;;;;;;8.05;100.00;100976.88;3059882;19;998;-50
2022/09/04 03:13:40;;;;;;;;;;;;;;;8.05;100.00;100979.53;3058812;19;1402;-46
2022/09/04 03:14:46;;;;;;;;;;;;;;;8.05;100.00;100976.88;3058563;19;933;-47
2022/09/04 03:16:06;;;;;;;;;;;;;;;8.05;100.00;100979.53;3059028;19;845;-47
2022/09/04 03:17:13;;;;;;;;;;;;;;;8.04;100.00;100975.16;3058858;19;981;-47
2022/09/04 03:18:23;;;;;;;;;;;;;;;8.04;100.00;100977.81;3058679;19;956;-45
2022/09/04 03:19:27;;;;;;;;;;;;;;;7.96;100.00;100964.00;3058471;19;1227;-48
2022/09/04 03:20:31;;;;;;;;;;;;;;;8.03;100.00;100977.88;3058851;19;857;-47
2022/09/04 03:23:00;;;;;;;;;;;;;;;7.89;100.00;100970.47;3058224;19;1432;-47
2022/09/04 03:24:04;;;;;;;;;;;;;;;8.03;100.00;100985.84;3058576;19;1064;-45
2022/09/04 03:25:27;;;;;;;;;;;;;;;8.01;100.00;100985.91;3059904;19;1184;-46
2022/09/04 03:26:30;;;;;;;;;;;;;;;7.99;100.00;100992.22;3058265;19;1844;-48
2022/09/04 03:27:35;;;;;;;;;;;;;;;7.98;100.00;100991.34;3058659;19;1086;-47
2022/09/04 03:28:45;;;;;;;;;;;;;;;7.95;100.00;100987.03;3058276;19;924;-47
2022/09/04 03:29:55;;;;;;;;;;;;;;;7.95;100.00;100988.84;3058342;19;1006;-47
2022/09/04 03:30:57;;;;;;;;;;;;;;;7.93;100.00;100988.91;3058246;19;1065;-47
2022/09/04 03:32:05;;;;;;;;;;;;;;;7.91;100.00;100981.91;3058324;19;1191;-47
2022/09/04 03:33:20;;;;;;;;;;;;;;;7.91;100.00;100985.44;3058721;19;933;-48
2022/09/04 03:34:28;;;;;;;;;;;;;;;7.92;100.00;100991.63;3058423;19;1087;-45
2022/09/04 03:35:35;;;;;;;;;;;;;;;7.92;100.00;100987.16;3058280;19;868;-48
2022/09/04 03:36:39;;;;;;;;;;;;;;;7.92;100.00;100991.63;3058305;19;1405;-46
2022/09/04 03:37:41;;;;;;;;;;;;;;;7.92;100.00;100988.97;3058789;19;872;-47
2022/09/04 03:38:51;;;;;;;;;;;;;;;7.93;100.00;100993.34;3058984;19;972;-45
2022/09/04 03:40:00;;;;;;;;;;;;;;;7.92;100.00;100988.97;3059082;19;975;-45
2022/09/04 03:41:05;;;;;;;;;;;;;;;7.91;100.00;100982.78;3059240;19;785;-48
2022/09/04 03:42:14;;;;;;;;;;;;;;;7.92;100.00;100988.97;3059168;19;853;-48
2022/09/04 03:43:37;;;;;;;;;;;;;;;7.91;100.00;100988.09;3058942;19;905;-45
2022/09/04 03:44:46;;;;;;;;;;;;;;;7.93;100.00;100988.03;3058070;19;1050;-47
2022/09/04 03:46:00;;;;;;;;;;;;;;;7.92;100.00;100991.63;3057720;19;956;-45
2022/09/04 03:47:06;;;;;;;;;;;;;;;7.91;100.00;100993.41;3057409;19;1853;-48
2022/09/04 03:48:26;;;;;;;;;;;;;;;7.92;100.00;100986.31;3058147;19;977;-45
2022/09/04 03:49:50;;;;;;;;;;;;;;;7.90;100.00;100986.38;3057934;19;963;-48
2022/09/04 03:51:01;;;;;;;;;;;;;;;7.91;100.00;100995.22;3058718;19;1321;-47
2022/09/04 03:52:11;;;;;;;;;;;;;;;7.92;100.00;100991.63;3058555;19;1385;-48
2022/09/04 03:53:15;;;;;;;;;;;;;;;7.90;100.00;100993.47;3059138;19;908;-46
2022/09/04 03:54:27;;;;;;;;;;;;;;;7.92;100.00;100991.63;3057893;19;1014;-47
2022/09/04 03:55:48;;;;;;;;;;;;;;;7.91;100.00;100996.06;3058085;19;1042;-48
2022/09/04 03:57:01;;;;;;;;;;;;;;;7.91;100.00;100989.88;3059123;19;932;-48
2022/09/04 03:58:09;;;;;;;;;;;;;;;7.93;100.00;100993.34;3058699;19;1008;-46
2022/09/04 03:59:26;;;;;;;;;;;;;;;7.95;100.00;100991.50;3058980;19;972;-49
2022/09/04 04:00:29;;;;;;;;;;;;;;;7.97;100.00;100998.44;3058967;19;1752;-48
2022/09/04 04:01:43;;;;;;;;;;;;;;;7.99;100.00;100993.06;3059649;19;1187;-47
2022/09/04 04:03:00;;;;;;;;;;;;;;;8.02;100.00;100992.94;3058209;19;1035;-48
2022/09/04 04:04:13;;;;;;;;;;;;;;;8.06;100.00;100989.25;3058710;19;928;-47
2022/09/04 04:05:25;;;;;;;;;;;;;;;8.08;100.00;100992.69;3058793;19;972;-46
2022/09/04 04:06:36;;;;;;;;;;;;;;;8.12;100.00;100993.41;3060343;19;1118;-45
2022/09/04 04:07:41;;;;;;;;;;;;;;;8.16;100.00;100993.22;3057001;19;1818;-47
2022/09/04 04:08:55;;;;;;;;;;;;;;;8.18;100.00;100988.72;3057801;19;1001;-48
2022/09/04 04:10:01;;;;;;;;;;;;;;;8.22;100.00;100987.63;3058776;19;865;-46
2022/09/04 04:11:11;;;;;;;;;;;;;;;8.24;100.00;100991.09;3058533;19;1000;-46
2022/09/04 04:12:13;;;;;;;;;;;;;;;8.28;100.00;100995.34;3058619;19;1392;-49
2022/09/04 04:13:37;;;;;;;;;;;;;;;8.32;100.00;100996.13;3058694;19;928;-48
2022/09/04 04:14:46;;;;;;;;;;;;;;;8.54;100.00;100998.69;3056058;19;1381;-47
2022/09/04 04:15:59;;;;;;;;;;;;;;;8.87;100.00;101005.13;3058847;19;1419;-47
2022/09/04 04:17:19;;;;;;;;;;;;;;;9.20;100.00;101007.13;3058348;19;1330;-44
2022/09/04 04:18:30;;;;;;;;;;;;;;;9.51;100.00;101020.72;3058271;19;923;-50
2022/09/04 04:19:39;;;;;;;;;;;;;;;9.70;100.00;101024.19;3057784;19;961;-47
2022/09/04 04:20:51;;;;;;;;;;;;;;;9.92;100.00;101028.44;3058488;19;861;-48
2022/09/04 04:22:22;;;;;;;;;;;;;;;10.19;100.00;101043.09;3058145;19;1180;-47
2022/09/04 04:23:28;;;;;;;;;;;;;;;10.39;100.00;101050.91;3057837;19;1626;-49
2022/09/04 04:24:37;;;;;;;;;;;;;;;10.42;100.00;101061.44;3058406;19;988;-46
2022/09/04 04:25:49;;;;;;;;;;;;;;;10.43;100.00;101072.97;3059320;19;1688;-47
2022/09/04 04:27:01;;;;;;;;;;;;;;;10.63;100.00;101079.94;3058583;19;869;-47
2022/09/04 04:28:18;;;;;;;;;;;;;;;10.77;100.00;101086.28;3056722;19;1857;-49
2022/09/04 04:29:29;;;;;;;;;;;;;;;10.80;100.00;101088.78;3057574;19;933;-48
2022/09/04 04:30:53;;;;;;;;;;;;;;;10.71;100.00;101093.75;3057813;19;941;-48
2022/09/04 04:32:09;;;;;;;;;;;;;;;10.55;100.00;101098.16;3058078;19;932;-46
2022/09/04 04:33:19;;;;;;;;;;;;;;;10.45;100.00;101101.31;3058391;19;854;-47
2022/09/04 04:34:24;;;;;;;;;;;;;;;10.42;100.00;101104.13;3058116;19;1651;-46
2022/09/04 04:35:30;;;;;;;;;;;;;;;10.39;100.00;101104.28;3057453;19;943;-48
2022/09/04 04:36:47;;;;;;;;;;;;;;;10.38;100.00;101107.91;3057592;19;939;-46
2022/09/04 04:38:01;;;;;;;;;;;;;;;10.35;100.00;101113.41;3057772;19;921;-46
2022/09/04 04:39:24;;;;;;;;;;;;;;;10.29;100.00;101119.03;3059648;19;1287;-48
2022/09/04 04:40:43;;;;;;;;;;;;;;;10.22;100.00;101116.75;3057658;19;971;-47
2022/09/04 04:42:06;;;;;;;;;;;;;;;10.14;100.00;101116.25;3057439;19;1222;-49
2022/09/04 04:43:12;;;;;;;;;;;;;;;10.03;100.00;101112.28;3057502;19;1000;-48
2022/09/04 04:44:17;;;;;;;;;;;;;;;9.97;100.00;101109.06;3057418;19;838;-48
2022/09/04 04:47:01;;;;;;;;;;;;;;;9.84;100.00;101115.94;3057478;19;906;-46
2022/09/04 04:48:24;;;;;;;;;;;;;;;9.76;100.00;101103.00;3056373;19;1862;-47
2022/09/04 04:49:32;;;;;;;;;;;;;;;9.70;100.00;101114.81;3058353;19;937;-45
2022/09/04 04:50:45;;;;;;;;;;;;;;;9.67;100.00;101109.59;3058122;19;1062;-45
2022/09/04 04:52:07;;;;;;;;;;;;;;;9.65;100.00;101111.50;3057501;19;884;-50
2022/09/04 04:53:18;;;;;;;;;;;;;;;9.65;100.00;101108.84;3057565;19;1019;-48
2022/09/04 04:54:42;;;;;;;;;;;;;;;9.64;100.00;101109.78;3057732;19;988;-46
2022/09/04 04:55:49;;;;;;;;;;;;;;;9.66;100.00;101104.38;3058238;19;916;-48
2022/09/04 04:57:00;;;;;;;;;;;;;;;9.68;100.00;101106.00;3056948;19;1064;-46
2022/09/04 04:58:17;;;;;;;;;;;;;;;9.71;100.00;101103.19;3057287;19;1000;-48
2022/09/04 04:59:22;;;;;;;;;;;;;;;9.76;100.00;101108.31;3057151;19;1011;-47
2022/09/04 05:00:40;;;;;;;;;;;;;;;9.81;100.00;101100.94;3056803;19;945;-46
2022/09/04 05:01:45;;;;;;;;;;;;;;;9.85;100.00;101107.00;3057310;19;822;-45
2022/09/04 05:03:00;;;;;;;;;;;;;;;9.90;100.00;101100.50;3057022;19;1027;-48
2022/09/04 05:04:08;;;;;;;;;;;;;;;9.96;100.00;101097.53;3056886;19;956;-45
2022/09/04 05:05:20;;;;;;;;;;;;;;;9.97;100.00;101101.06;3057905;19;850;-46
2022/09/04 05:06:35;;;;;;;;;;;;;;;10.04;100.00;101087.34;3058284;19;968;-46
2022/09/04 05:07:42;;;;;;;;;;;;;;;10.08;100.00;101096.06;3057725;19;1863;-47
2022/09/04 05:08:46;;;;;;;;;;;;;;;10.16;100.00;101095.69;3058390;19;1337;-47
2022/09/04 05:09:58;;;;;;;;;;;;;;;10.22;100.00;101090.94;3057097;19;1210;-49
2022/09/04 05:11:00;;;;;;;;;;;;;;;10.28;100.00;101095.94;3056755;19;886;-50
2022/09/04 05:12:09;;;;;;;;;;;;;;;10.37;100.00;101094.66;3057066;19;842;-49
2022/09/04 05:13:19;;;;;;;;;;;;;;;10.43;100.00;101089.84;3055959;19;1647;-47
2022/09/04 05:14:43;;;;;;;;;;;;;;;10.52;100.00;101099.19;3057248;19;955;-48
2022/09/04 05:15:50;;;;;;;;;;;;;;;10.62;100.00;101091.59;3057430;19;1190;-48
2022/09/04 05:17:30;;;;;;;;;;;;;;;10.75;100.00;101089.97;3056701;19;944;-47
2022/09/04 05:18:47;;;;;;;;;;;;;;;10.86;100.00;101092.97;3057047;19;1563;-47
2022/09/04 05:19:55;;;;;;;;;;;;;;;10.98;100.00;101097.66;3057439;19;1031;-46
2022/09/04 05:21:15;;;;;;;;;;;;;;;11.08;100.00;101090.88;3057053;19;1064;-48
2022/09/04 05:22:22;;;;;;;;;;;;;;;11.21;100.00;101099.06;3057686;19;1508;-47
2022/09/04 05:23:24;;;;;;;;;;;;;;;11.32;100.00;101098.47;3056356;19;1408;-49
2022/09/04 05:24:50;;;;;;;;;;;;;;;11.43;100.00;101102.28;3058139;19;1238;-48
2022/09/04 05:25:59;;;;;;;;;;;;;;;11.55;100.00;101098.06;3058168;19;956;-48
2022/09/04 05:27:06;;;;;;;;;;;;;;;11.66;100.00;101101.00;3057530;19;873;-48
2022/09/04 05:28:11;;;;;;;;;;;;;;;11.76;100.00;101102.22;3057140;19;1858;-48
2022/09/04 05:29:15;;;;;;;;;;;;;;;11.86;100.00;101103.44;3057595;19;972;-47
2022/09/04 05:30:19;;;;;;;;;;;;;;;11.96;100.00;101098.41;3057455;19;941;-48
2022/09/04 05:31:41;;;;;;;;;;;;;;;12.04;100.00;101101.53;3056667;19;932;-49
2022/09/04 05:33:04;;;;;;;;;;;;;;;12.16;100.00;101100.81;3057129;19;940;-47
2022/09/04 05:34:27;;;;;;;;;;;;;;;12.28;100.00;101104.59;3056375;19;1026;-47
2022/09/04 05:35:32;;;;;;;;;;;;;;;12.41;100.00;101110.09;3056961;19;970;-50
2022/09/04 05:36:57;;;;;;;;;;;;;;;12.51;100.00;101105.91;3057546;19;1011;-45
2022/09/04 05:38:16;;;;;;;;;;;;;;;12.65;100.00;101113.09;3057172;19;1039;-47
2022/09/04 05:39:25;;;;;;;;;;;;;;;12.77;100.00;101109.69;3057404;19;967;-46
2022/09/04 05:40:48;;;;;;;;;;;;;;;12.89;100.00;101114.28;3056458;19;991;-46
2022/09/04 05:41:53;;;;;;;;;;;;;;;13.02;100.00;101111.72;3054273;19;2031;-46
2022/09/04 05:43:17;;;;;;;;;;;;;;;13.11;100.00;101112.00;3055874;19;1574;-48
2022/09/04 05:44:40;;;;;;;;;;;;;;;13.24;100.00;101118.38;3053211;19;1959;-46
2022/09/04 05:45:48;;;;;;;;;;;;;;;13.36;100.00;101116.72;3058035;19;1388;-47
2022/09/04 05:47:07;;;;;;;;;;;;;;;13.45;100.00;101120.66;3058409;19;1196;-46
2022/09/04 05:48:25;;;;;;;;;;;;;;;13.57;100.00;101119.84;3056359;19;1852;-47
2022/09/04 05:49:43;;;;;;;;;;;;;;;13.69;100.00;101119.06;3056775;19;2012;-47
2022/09/04 05:50:47;;;;;;;;;;;;;;;13.80;100.00;101121.91;3057052;19;965;-48
2022/09/04 05:52:08;;;;;;;;;;;;;;;13.90;100.00;101127.53;3054665;19;1668;-46
2022/09/04 05:53:17;;;;;;;;;;;;;;;14.00;100.00;101132.25;3056825;19;1555;-47
2022/09/04 05:54:41;;;;;;;;;;;;;;;14.12;100.00;101137.75;3056312;19;1774;-48
2022/09/04 05:55:49;;;;;;;;;;;;;;;14.23;100.00;101141.47;3055717;19;1043;-47
2022/09/04 05:56:54;;;;;;;;;;;;;;;14.33;100.00;101144.38;3056288;19;1639;-48
2022/09/04 05:58:01;;;;;;;;;;;;;;;14.41;100.00;101140.25;3055425;19;1285;-47
2022/09/04 05:59:14;;;;;;;;;;;;;;;14.50;100.00;101144.13;3055950;19;1937;-46
2022/09/04 06:00:21;;;;;;;;;;;;;;;14.59;100.00;101137.28;3057261;19;1092;-48
2022/09/04 06:01:28;;;;;;;;;;;;;;;14.66;100.00;101139.44;3055623;19;1197;-48
2022/09/04 06:02:42;;;;;;;;;;;;;;;14.75;100.00;101143.31;3056363;19;1032;-49
2022/09/04 06:04:04;;;;;;;;;;;;;;;14.84;100.00;101147.22;3057066;19;1891;-45
2022/09/04 06:05:12;;;;;;;;;;;;;;;14.94;100.00;101157.22;3057012;19;901;-45
2022/09/04 06:06:30;;;;;;;;;;;;;;;15.02;100.00;101151.31;3056065;19;1072;-47
2022/09/04 06:07:46;;;;;;;;;;;;;;;15.04;100.00;101152.06;3056660;19;1456;-46
2022/09/04 06:09:29;;;;;;;;;;;;;;;15.20;100.00;101166.19;3055600;19;1854;-48
2022/09/04 06:10:35;;;;;;;;;;;;;;;15.30;100.00;101172.63;3054585;19;1809;-48
2022/09/04 06:11:58;;;;;;;;;;;;;;;15.37;100.00;101168.53;3054043;19;1386;-50
2022/09/04 06:13:18;;;;;;;;;;;;;;;15.45;100.00;101168.84;3055314;19;2306;-48
2022/09/04 06:14:40;;;;;;;;;;;;;;;15.55;100.00;101176.31;3055160;19;2528;-49
2022/09/04 06:15:48;;;;;;;;;;;;;;;15.62;100.00;101182.94;3054452;19;1994;-48
2022/09/04 06:16:56;;;;;;;;;;;;;;;15.69;100.00;101184.25;3055825;19;860;-48